Asaph, Pennsylvania
Current Conditions -  °F | °C
As of 5:35 PM on Wednesday 22 Oct 2014 (Local Time) from KN38 Reporting Station
Drizzle Drizzle  
Wind Chill: 34°   Ceiling: 400
Heat Index: 43°   Visibility: 2mi
Dew Point: 41°   Wind: 20mph
Humidity: 93%   Direction: 360°N
Pressure: 30.1"   Gusts: 29mph
Location:  41.7308°N, 77.349°W
Report Text: KN38 222135Z AUTO 36017G25KT 2SM -DZ OVC004 06/05 A3010 RMK AO2
Loading
Personal Weather Stations






























Interactive Weather Map
Tropical Storm Tracking
New forecast layout! Learn more

10-Day Weather Forecast

Advertisements
Track Severe Weather on mobile